Time;durP1;ratioP1;P1;durP2;ratioP2;P2;SDS_P1;SDS_P2;PMS_P1;PMS_P2;Temp;Humidity;BMP_temperature;BMP_pressure;BME280_temperature;BME280_humidity;BME280_pressure;Samples;Min_cycle;Max_cycle;Signal;HPM_P1;HPM_P2
2023/03/03 00:00:39;;;;;;;15.13;6.80;;;;;;;1.07;99.45;101800.72;5014421;28;20472;-66
2023/03/03 00:03:08;;;;;;;15.07;7.10;;;;;;;1.01;99.14;101817.53;5014190;28;20567;-66
2023/03/03 00:05:35;;;;;;;18.57;5.57;;;;;;;0.80;99.90;101807.09;5014795;28;20447;-66
2023/03/03 00:08:02;;;;;;;21.60;7.83;;;;;;;0.89;99.83;101825.34;5014493;28;20956;-66
2023/03/03 00:10:30;;;;;;;22.43;7.83;;;;;;;0.73;100.00;101821.25;5014068;28;20546;-66
2023/03/03 00:12:56;;;;;;;14.67;6.90;;;;;;;0.78;100.00;101812.63;5014027;28;20444;-66
2023/03/03 00:15:25;;;;;;;19.10;7.37;;;;;;;0.86;100.00;101814.28;5014268;28;20482;-66
2023/03/03 00:17:53;;;;;;;17.07;7.13;;;;;;;0.78;100.00;101817.16;5013821;28;20822;-66
2023/03/03 00:20:30;;;;;;;19.27;7.50;;;;;;;0.69;100.00;101820.00;5014121;28;20466;-66
2023/03/03 00:23:04;;;;;;;18.03;7.47;;;;;;;0.76;100.00;101801.38;5014186;28;20987;-66
2023/03/03 00:25:33;;;;;;;17.17;7.33;;;;;;;0.90;100.00;101791.50;5014360;28;20435;-66
2023/03/03 00:28:02;;;;;;;17.17;7.50;;;;;;;0.90;100.00;101799.50;5014061;28;20451;-66
2023/03/03 00:30:28;;;;;;;18.60;7.60;;;;;;;0.79;100.00;101792.94;5013639;28;21004;-65
2023/03/03 00:32:55;;;;;;;16.70;7.20;;;;;;;0.72;100.00;101792.94;5014039;28;20446;-66
2023/03/03 00:35:26;;;;;;;19.60;8.00;;;;;;;0.71;100.00;101798.50;5013961;28;20443;-66
2023/03/03 00:37:56;;;;;;;15.20;6.60;;;;;;;0.71;100.00;101801.16;5013770;28;20906;-66
2023/03/03 00:40:24;;;;;;;16.80;6.73;;;;;;;0.71;100.00;101790.50;5013790;28;20475;-66
2023/03/03 00:42:54;;;;;;;24.03;7.83;;;;;;;0.69;100.00;101797.88;5013722;28;20490;-66
2023/03/03 00:45:35;;;;;;;16.87;6.70;;;;;;;0.50;100.00;101799.50;5013688;28;21004;-65
2023/03/03 00:48:18;;;;;;;14.20;6.57;;;;;;;0.61;100.00;101790.88;5013826;28;20432;-65
2023/03/03 00:50:45;;;;;;;20.40;6.90;;;;;;;0.64;100.00;101792.34;5012934;28;20547;-66
2023/03/03 00:53:15;;;;;;;13.03;6.50;;;;;;;0.63;100.00;101790.69;5013437;28;20444;-66
2023/03/03 00:55:42;;;;;;;17.90;7.70;;;;;;;0.65;100.00;101791.31;5013730;28;20439;-66
2023/03/03 00:58:11;;;;;;;22.70;6.97;;;;;;;0.63;100.00;101791.50;5013386;28;20476;-67
2023/03/03 01:00:38;;;;;;;20.87;7.90;;;;;;;0.64;100.00;101792.34;5013248;28;20492;-66
2023/03/03 01:03:07;;;;;;;15.77;6.37;;;;;;;0.68;100.00;101774.91;5013246;28;20488;-66
2023/03/03 01:05:34;;;;;;;15.07;5.77;;;;;;;0.75;100.00;101768.56;5014817;28;20547;-66
2023/03/03 01:08:01;;;;;;;16.53;6.30;;;;;;;0.67;100.00;101784.75;5013545;28;20446;-66
2023/03/03 01:10:31;;;;;;;14.83;6.77;;;;;;;0.72;100.00;101782.28;5013421;28;20499;-66
2023/03/03 01:12:58;;;;;;;20.13;7.60;;;;;;;0.70;100.00;101784.31;5013186;28;20945;-67
2023/03/03 01:15:26;;;;;;;23.10;8.13;;;;;;;0.74;100.00;101780.22;5013143;28;21020;-67
2023/03/03 01:17:54;;;;;;;17.67;6.77;;;;;;;0.63;99.98;101783.53;5013371;28;20476;-66
2023/03/03 01:20:21;;;;;;;21.17;9.37;;;;;;;0.63;100.00;101782.69;5013344;28;20468;-67
2023/03/03 01:22:48;;;;;;;17.63;6.20;;;;;;;0.71;100.00;101770.00;5013237;28;20569;-66
2023/03/03 01:25:15;;;;;;;14.80;6.07;;;;;;;0.74;100.00;101777.56;5013028;28;20908;-68
2023/03/03 01:27:41;;;;;;;26.63;7.60;;;;;;;0.78;99.36;101779.81;5013339;28;20443;-65
2023/03/03 01:30:09;;;;;;;15.50;6.80;;;;;;;0.72;99.09;101760.94;5013194;28;20499;-67
2023/03/03 01:32:37;;;;;;;14.17;5.97;;;;;;;0.67;99.64;101768.75;5012941;28;20530;-66
2023/03/03 01:35:04;;;;;;;18.97;7.10;;;;;;;0.63;99.53;101769.38;5013326;28;20881;-66
2023/03/03 01:37:31;;;;;;;21.10;8.23;;;;;;;0.58;99.50;101761.19;5012916;28;20942;-65
2023/03/03 01:39:57;;;;;;;14.40;6.30;;;;;;;0.58;100.00;101758.50;5013157;28;20463;-66
2023/03/03 01:42:28;;;;;;;20.67;7.23;;;;;;;0.60;99.49;101751.94;5013100;28;20839;-67
2023/03/03 01:45:12;;;;;;;16.23;7.70;;;;;;;0.60;99.06;101743.94;5013507;28;20519;-66
2023/03/03 01:47:45;;;;;;;20.90;8.73;;;;;;;0.54;99.66;101746.63;5013207;28;20435;-66
2023/03/03 01:50:17;;;;;;;15.83;7.20;;;;;;;0.59;98.80;101747.63;5012751;28;20981;-67
2023/03/03 01:52:47;;;;;;;18.70;7.30;;;;;;;0.59;98.64;101733.50;5013151;28;20424;-66
2023/03/03 01:55:19;;;;;;;17.00;7.67;;;;;;;0.54;97.62;101733.28;5012783;28;20454;-67
2023/03/03 01:57:49;;;;;;;18.00;7.47;;;;;;;0.59;98.17;101731.63;5013056;28;20431;-66
2023/03/03 02:00:17;;;;;;;17.27;7.50;;;;;;;0.63;98.97;101742.72;5012758;28;20482;-66
2023/03/03 02:02:46;;;;;;;20.90;7.87;;;;;;;0.61;99.43;101732.25;5016192;28;20484;-66
2023/03/03 02:05:14;;;;;;;18.23;7.77;;;;;;;0.64;99.52;101747.84;5016773;28;20563;-67
2023/03/03 02:07:41;;;;;;;19.83;7.37;;;;;;;0.69;97.98;101736.53;5016714;28;20456;-66
2023/03/03 02:10:12;;;;;;;24.77;9.00;;;;;;;0.68;97.75;101751.72;5016657;28;20459;-67
2023/03/03 02:12:42;;;;;;;24.40;8.53;;;;;;;0.69;97.12;101755.22;5016383;28;20796;-65
2023/03/03 02:15:20;;;;;;;16.73;7.33;;;;;;;0.73;97.85;101749.25;5016642;28;20466;-68
2023/03/03 02:17:50;;;;;;;24.70;8.37;;;;;;;0.79;98.01;101760.13;5016623;28;20471;-66
2023/03/03 02:20:28;;;;;;;21.17;9.00;;;;;;;0.66;98.84;101756.44;5016404;28;20464;-66
2023/03/03 02:22:59;;;;;;;18.00;6.40;;;;;;;0.66;99.47;101756.44;5016469;28;20467;-66
2023/03/03 02:25:34;;;;;;;21.27;8.13;;;;;;;0.54;100.00;101752.75;5016424;28;20483;-67
2023/03/03 02:28:02;;;;;;;23.13;7.90;;;;;;;0.66;100.00;101752.94;5016395;28;20439;-66
2023/03/03 02:30:29;;;;;;;19.23;6.90;;;;;;;0.67;100.00;101754.59;5015891;28;20562;-66
2023/03/03 02:32:55;;;;;;;19.37;7.73;;;;;;;0.70;100.00;101762.19;5016297;28;20479;-66
2023/03/03 02:35:28;;;;;;;15.60;6.90;;;;;;;0.65;99.47;101752.13;5015871;28;20937;-66
2023/03/03 02:37:59;;;;;;;15.33;6.30;;;;;;;0.65;100.00;101753.97;5016190;28;20424;-66
2023/03/03 02:40:31;;;;;;;19.57;8.57;;;;;;;0.57;100.00;101760.31;5016066;28;20552;-66
2023/03/03 02:42:59;;;;;;;20.33;8.03;;;;;;;0.62;100.00;101755.22;5016065;28;20468;-66
2023/03/03 02:45:26;;;;;;;22.77;7.73;;;;;;;0.67;100.00;101766.09;5016022;28;20450;-66
2023/03/03 02:47:53;;;;;;;26.13;7.60;;;;;;;0.63;100.00;101759.53;5015857;28;20448;-66
2023/03/03 02:50:20;;;;;;;18.73;7.57;;;;;;;0.61;100.00;101761.56;5015532;28;20989;-66
2023/03/03 02:52:46;;;;;;;25.03;8.37;;;;;;;0.47;100.00;101752.75;5015945;28;20460;-66
2023/03/03 02:55:13;;;;;;;14.57;6.30;;;;;;;0.37;100.00;101756.88;5015879;28;20812;-67
2023/03/03 02:57:39;;;;;;;16.30;6.50;;;;;;;0.36;100.00;101755.22;5015770;28;20450;-66
2023/03/03 03:00:07;;;;;;;18.77;7.20;;;;;;;0.40;100.00;101753.75;5015384;28;20488;-66
2023/03/03 03:02:35;;;;;;;16.57;6.03;;;;;;;0.37;100.00;101751.53;5015660;28;20491;-66
2023/03/03 03:05:02;;;;;;;15.03;6.30;;;;;;;0.38;100.00;101758.50;5015740;28;20466;-68
2023/03/03 03:07:28;;;;;;;20.77;7.40;;;;;;;0.34;100.00;101762.59;5015692;28;20452;-67
2023/03/03 03:09:55;;;;;;;12.40;5.23;;;;;;;0.36;100.00;101761.38;5015704;28;20551;-67
2023/03/03 03:12:21;;;;;;;17.80;7.37;;;;;;;0.35;100.00;101753.56;5015258;28;20443;-67
2023/03/03 03:14:48;;;;;;;16.93;7.03;;;;;;;0.31;100.00;101758.50;5015128;28;20444;-66
2023/03/03 03:17:15;;;;;;;18.27;7.53;;;;;;;0.27;100.00;101767.06;5015442;28;20471;-66
2023/03/03 03:19:42;;;;;;;21.80;7.90;;;;;;;0.21;100.00;101774.03;5015007;28;20985;-66
2023/03/03 03:22:09;;;;;;;22.73;8.17;;;;;;;0.21;100.00;101777.53;5015290;28;20487;-67
2023/03/03 03:24:36;;;;;;;15.83;6.83;;;;;;;0.28;100.00;101782.88;5015313;28;20515;-66
2023/03/03 03:27:02;;;;;;;22.33;7.53;;;;;;;0.35;100.00;101782.88;5015300;28;20440;-66
2023/03/03 03:29:29;;;;;;;18.07;7.17;;;;;;;0.37;100.00;101781.66;5015398;28;20463;-66
2023/03/03 03:31:55;;;;;;;13.23;6.50;;;;;;;0.38;100.00;101779.81;5014852;28;20822;-66
2023/03/03 03:34:22;;;;;;;17.93;6.93;;;;;;;0.41;100.00;101784.75;5014988;28;20454;-66
2023/03/03 03:36:50;;;;;;;16.17;7.30;;;;;;;0.39;100.00;101787.59;5014861;28;20571;-66
2023/03/03 03:39:16;;;;;;;15.77;5.80;;;;;;;0.39;100.00;101781.44;5014988;28;20474;-65
2023/03/03 03:41:43;;;;;;;20.67;7.67;;;;;;;0.41;100.00;101784.75;5015051;28;20480;-66
2023/03/03 03:44:10;;;;;;;22.67;7.57;;;;;;;0.36;100.00;101772.03;5014841;28;21035;-67
2023/03/03 03:46:36;;;;;;;15.03;6.37;;;;;;;0.37;100.00;101770.19;5014682;28;20486;-66
2023/03/03 03:49:03;;;;;;;15.30;6.23;;;;;;;0.27;100.00;101767.06;5014842;28;20515;-66
2023/03/03 03:51:30;;;;;;;19.67;6.77;;;;;;;0.18;100.00;101772.63;5014734;28;20452;-65
2023/03/03 03:53:58;;;;;;;16.30;6.90;;;;;;;0.35;100.00;101764.22;5014481;28;20455;-66
2023/03/03 03:56:24;;;;;;;20.80;7.00;;;;;;;0.40;100.00;101756.44;5015046;28;20526;-65
2023/03/03 03:58:51;;;;;;;18.90;7.90;;;;;;;0.46;100.00;101760.97;5014048;28;20945;-66
2023/03/03 04:01:18;;;;;;;17.97;6.50;;;;;;;0.57;100.00;101756.84;5014395;28;20435;-66
2023/03/03 04:03:44;;;;;;;16.40;6.93;;;;;;;0.52;100.00;101754.78;5014484;28;20523;-65
2023/03/03 04:06:12;;;;;;;15.00;6.90;;;;;;;0.53;100.00;101751.09;5014268;28;20456;-67
2023/03/03 04:08:38;;;;;;;20.33;8.57;;;;;;;0.47;100.00;101751.94;5014820;28;20510;-67
2023/03/03 04:11:06;;;;;;;21.13;7.10;;;;;;;0.56;100.00;101745.38;5014459;28;20861;-66
2023/03/03 04:13:34;;;;;;;16.57;6.60;;;;;;;0.62;100.00;101752.56;5014234;28;20436;-66
2023/03/03 04:16:00;;;;;;;16.10;6.83;;;;;;;0.63;100.00;101745.38;5014655;28;20452;-66
2023/03/03 04:18:27;;;;;;;19.23;8.83;;;;;;;0.60;100.00;101738.59;5014023;28;20953;-66
2023/03/03 04:20:54;;;;;;;23.77;8.07;;;;;;;0.61;100.00;101742.09;5013962;28;20534;-67
2023/03/03 04:23:21;;;;;;;17.60;7.50;;;;;;;0.58;100.00;101731.84;5014189;28;20487;-67
2023/03/03 04:25:49;;;;;;;19.97;8.40;;;;;;;0.62;100.00;101735.72;5014229;28;20440;-66
2023/03/03 04:28:17;;;;;;;24.67;8.50;;;;;;;0.64;100.00;101737.16;5014177;28;20444;-66
2023/03/03 04:30:44;;;;;;;33.03;7.47;;;;;;;0.65;100.00;101733.47;5013750;28;20542;-66
2023/03/03 04:33:11;;;;;;;19.33;7.60;;;;;;;0.52;100.00;101733.47;5013732;28;20536;-66
2023/03/03 04:35:37;;;;;;;26.50;7.17;;;;;;;0.57;100.00;101739.00;5014013;28;20859;-66
2023/03/03 04:38:04;;;;;;;19.67;7.50;;;;;;;0.52;100.00;101722.81;5013743;28;20439;-66
2023/03/03 04:40:31;;;;;;;16.57;7.30;;;;;;;0.35;100.00;101732.25;5013932;28;20834;-66
2023/03/03 04:42:57;;;;;;;20.90;7.10;;;;;;;0.43;100.00;101742.72;5013864;28;20484;-66
2023/03/03 04:45:25;;;;;;;22.87;8.50;;;;;;;0.43;100.00;101735.53;5013588;28;20450;-66
2023/03/03 04:47:52;;;;;;;21.03;8.07;;;;;;;0.48;100.00;101742.91;5013872;28;20452;-66
2023/03/03 04:50:19;;;;;;;18.40;8.13;;;;;;;0.44;100.00;101744.34;5013397;28;20912;-66
2023/03/03 04:52:46;;;;;;;19.83;7.63;;;;;;;0.35;100.00;101750.91;5013686;28;20551;-66
2023/03/03 04:55:13;;;;;;;21.30;6.17;;;;;;;0.22;100.00;101744.56;5013678;28;20474;-66
2023/03/03 04:57:39;;;;;;;21.27;7.57;;;;;;;0.29;100.00;101749.06;5013375;28;20459;-66
2023/03/03 05:00:07;;;;;;;22.83;7.83;;;;;;;0.20;100.00;101743.09;5013318;28;21015;-66
2023/03/03 05:02:35;;;;;;;20.63;8.30;;;;;;;0.21;100.00;101737.56;5013566;28;20567;-67
2023/03/03 05:05:02;;;;;;;22.50;6.33;;;;;;;0.24;100.00;101736.34;5013636;28;20499;-66
2023/03/03 05:07:28;;;;;;;19.50;7.27;;;;;;;0.29;100.00;101736.56;5013730;28;20451;-66
2023/03/03 05:09:55;;;;;;;22.17;7.57;;;;;;;0.27;100.00;101727.13;5013485;28;20503;-66
2023/03/03 05:12:22;;;;;;;18.97;6.10;;;;;;;0.30;100.00;101734.72;5013193;28;20448;-66
2023/03/03 05:14:48;;;;;;;20.10;6.13;;;;;;;0.19;100.00;101726.31;5013466;28;20448;-66
2023/03/03 05:17:15;;;;;;;15.67;6.00;;;;;;;0.22;100.00;101723.25;5013111;28;21037;-66
2023/03/03 05:19:43;;;;;;;15.33;5.83;;;;;;;0.12;100.00;101725.47;5013335;28;20554;-66
2023/03/03 05:22:10;;;;;;;15.43;6.27;;;;;;;0.10;100.00;101718.72;5013399;28;20444;-67
2023/03/03 05:24:36;;;;;;;14.37;4.40;;;;;;;0.09;100.00;101725.91;5013551;28;20490;-66
2023/03/03 05:27:03;;;;;;;18.03;6.47;;;;;;;0.13;100.00;101726.28;5013336;28;20483;-67
2023/03/03 05:29:32;;;;;;;17.80;6.03;;;;;;;0.05;100.00;101732.66;5013179;28;20557;-67
2023/03/03 05:31:58;;;;;;;14.27;6.07;;;;;;;0.05;100.00;101732.66;5013253;28;20456;-67
2023/03/03 05:34:26;;;;;;;15.20;5.47;;;;;;;0.06;100.00;101734.28;5013189;28;20448;-66
2023/03/03 05:36:53;;;;;;;22.93;6.80;;;;;;;0.04;100.00;101740.81;5015261;28;20536;-66
2023/03/03 05:39:20;;;;;;;15.90;6.63;;;;;;;0.02;100.00;101751.69;5017372;28;20462;-66
2023/03/03 05:41:47;;;;;;;14.37;4.90;;;;;;;0.10;100.00;101756.00;5017230;28;20440;-66
2023/03/03 05:44:13;;;;;;;14.17;6.17;;;;;;;0.09;100.00;101751.69;5017108;28;20571;-66
2023/03/03 05:46:41;;;;;;;14.33;5.33;;;;;;;-0.15;100.00;101758.41;5017386;28;20444;-66
2023/03/03 05:49:08;;;;;;;13.03;5.73;;;;;;;-0.27;100.00;101748.34;5016869;28;20538;-66
2023/03/03 05:51:34;;;;;;;17.30;6.30;;;;;;;-0.17;100.00;101750.63;5016532;28;20941;-65
2023/03/03 05:54:02;;;;;;;12.73;5.30;;;;;;;-0.09;100.00;101757.59;5016865;28;20458;-66
2023/03/03 05:56:29;;;;;;;15.93;5.07;;;;;;;0.04;100.00;101757.63;5016825;28;20450;-66
2023/03/03 05:58:55;;;;;;;17.33;5.47;;;;;;;0.11;100.00;101758.47;5016480;28;20444;-66
2023/03/03 06:01:22;;;;;;;19.37;6.60;;;;;;;0.13;100.00;101763.56;5016888;28;20433;-67
2023/03/03 06:03:48;;;;;;;16.70;6.40;;;;;;;-0.01;100.00;101760.88;5016622;28;20493;-66
2023/03/03 06:06:15;;;;;;;24.07;7.47;;;;;;;0.04;100.00;101760.28;5016583;28;20483;-66
2023/03/03 06:08:42;;;;;;;22.03;6.60;;;;;;;0.07;100.00;101762.56;5016606;28;20458;-64
2023/03/03 06:11:11;;;;;;;15.93;6.50;;;;;;;0.07;100.00;101759.06;5016417;28;20468;-66
2023/03/03 06:13:38;;;;;;;20.57;6.90;;;;;;;0.02;100.00;101764.19;5016686;28;20436;-67
2023/03/03 06:16:05;;;;;;;20.87;6.73;;;;;;;0.12;100.00;101765.44;5016710;28;20471;-66
2023/03/03 06:18:32;;;;;;;24.33;7.83;;;;;;;0.13;100.00;101763.56;5016574;28;20941;-66
2023/03/03 06:20:58;;;;;;;19.23;6.80;;;;;;;0.10;100.00;101769.34;5016281;28;20474;-66
2023/03/03 06:23:25;;;;;;;14.90;5.40;;;;;;;0.12;100.00;101777.94;5016368;28;20483;-67
2023/03/03 06:25:52;;;;;;;23.20;6.50;;;;;;;0.12;100.00;101776.06;5016552;28;20447;-66
2023/03/03 06:28:20;;;;;;;18.83;7.37;;;;;;;0.11;100.00;101773.63;5016162;28;21019;-67
2023/03/03 06:30:47;;;;;;;17.73;7.20;;;;;;;0.16;100.00;101776.50;5016338;28;20542;-66
2023/03/03 06:33:13;;;;;;;21.90;7.50;;;;;;;0.13;100.00;101780.38;5016230;28;20461;-67
2023/03/03 06:35:40;;;;;;;20.73;6.60;;;;;;;0.14;100.00;101782.03;5016400;28;20448;-66
2023/03/03 06:38:06;;;;;;;19.90;6.60;;;;;;;0.14;100.00;101784.72;5015915;28;20964;-67
2023/03/03 06:40:33;;;;;;;20.00;6.27;;;;;;;0.17;100.00;101786.94;5016461;28;20470;-65
2023/03/03 06:43:01;;;;;;;25.93;6.30;;;;;;;0.13;100.00;101788.38;5016366;28;20447;-66
2023/03/03 06:45:29;;;;;;;22.23;5.43;;;;;;;0.01;100.00;101782.00;5015849;28;20796;-66
2023/03/03 06:47:55;;;;;;;17.60;6.30;;;;;;;0.06;100.00;101782.22;5014521;28;20452;-66
2023/03/03 06:50:22;;;;;;;19.13;6.17;;;;;;;0.18;100.00;101782.47;5015864;28;20499;-66
2023/03/03 06:52:49;;;;;;;17.67;6.60;;;;;;;0.27;100.00;101777.72;5015913;28;20443;-66
2023/03/03 06:55:21;;;;;;;14.37;5.53;;;;;;;0.24;100.00;101782.47;5015740;28;20527;-66
2023/03/03 06:57:48;;;;;;;29.27;6.13;;;;;;;0.11;100.00;101793.09;5015911;28;20511;-68
2023/03/03 07:00:19;;;;;;;16.77;5.70;;;;;;;0.14;100.00;101800.69;5015394;28;20570;-67
2023/03/03 07:02:47;;;;;;;19.57;6.37;;;;;;;0.17;100.00;101810.91;5015966;28;20432;-66
2023/03/03 07:05:17;;;;;;;29.47;7.23;;;;;;;0.20;100.00;101815.03;5017057;28;20560;-66
2023/03/03 07:07:44;;;;;;;15.73;6.00;;;;;;;0.28;100.00;101819.38;5015630;28;20483;-67
2023/03/03 07:10:22;;;;;;;17.43;5.60;;;;;;;0.35;100.00;101813.00;5015419;28;20895;-67
2023/03/03 07:12:48;;;;;;;12.40;5.20;;;;;;;0.38;100.00;101812.59;5015250;28;20921;-69
2023/03/03 07:15:19;;;;;;;17.07;6.10;;;;;;;0.42;100.00;101829.00;5015549;28;20448;-66
2023/03/03 07:17:49;;;;;;;21.03;7.10;;;;;;;0.42;100.00;101819.19;5015581;28;20479;-67
2023/03/03 07:20:21;;;;;;;17.07;7.07;;;;;;;0.55;100.00;101823.69;5015574;28;20464;-68
2023/03/03 07:22:48;;;;;;;27.33;6.77;;;;;;;0.40;100.00;101821.25;5014796;28;20491;-69
2023/03/03 07:25:31;;;;;;;15.70;6.37;;;;;;;0.45;100.00;101820.63;5015276;28;20632;-68
2023/03/03 07:28:07;;;;;;;16.40;6.07;;;;;;;0.40;100.00;101821.25;5015827;28;20519;-68
2023/03/03 07:30:33;;;;;;;17.10;5.97;;;;;;;0.29;100.00;101819.16;4997790;28;20516;-68
2023/03/03 07:33:01;;;;;;;11.73;4.53;;;;;;;0.33;100.00;101827.56;4995299;28;20984;-68
2023/03/03 07:35:38;;;;;;;13.13;5.40;;;;;;;0.37;100.00;101829.63;5010558;28;20535;-70
2023/03/03 07:38:24;;;;;;;12.60;5.20;;;;;;;0.14;100.00;101827.31;5015074;28;20428;-68
2023/03/03 07:40:53;;;;;;;13.83;5.20;;;;;;;0.13;100.00;101836.31;5014986;28;20467;-70
2023/03/03 07:43:29;;;;;;;9.90;3.50;;;;;;;0.16;100.00;101835.09;5014565;28;20449;-70
2023/03/03 07:46:02;;;;;;;22.63;5.97;;;;;;;0.30;100.00;101835.97;5014574;28;20523;-69
2023/03/03 07:48:36;;;;;;;12.43;4.60;;;;;;;0.21;100.00;101832.66;5014989;28;20432;-68
2023/03/03 07:51:05;;;;;;;11.23;4.10;;;;;;;0.29;100.00;101837.00;5014765;28;20480;-69
2023/03/03 07:53:36;;;;;;;11.73;4.57;;;;;;;0.44;100.00;101842.94;5014462;28;20487;-67
2023/03/03 07:56:06;;;;;;;16.43;4.73;;;;;;;0.57;100.00;101847.47;5009270;28;20449;-67
2023/03/03 07:58:38;;;;;;;14.20;4.70;;;;;;;0.68;100.00;101834.38;4994856;28;20444;-66
2023/03/03 08:01:39;;;;;;;15.90;5.10;;;;;;;0.77;100.00;101844.84;4994550;28;21002;-66
2023/03/03 08:04:23;;;;;;;15.40;5.30;;;;;;;0.79;100.00;101832.94;4994604;28;20539;-66
2023/03/03 08:06:55;;;;;;;10.77;4.40;;;;;;;0.89;100.00;101843.22;4995099;28;20460;-66
2023/03/03 08:09:46;;;;;;;14.57;4.27;;;;;;;0.81;100.00;101846.06;4994821;28;20461;-66
2023/03/03 08:12:46;;;;;;;20.33;5.00;;;;;;;0.80;100.00;101852.41;4995121;28;20437;-67
2023/03/03 08:15:20;;;;;;;19.67;6.10;;;;;;;0.91;100.00;101841.97;4934987;29;20440;-65
2023/03/03 08:17:47;;;;;;;12.73;4.37;;;;;;;0.96;100.00;101841.34;4984969;28;20471;-66
2023/03/03 08:20:44;;;;;;;13.77;5.90;;;;;;;0.97;100.00;101842.97;4995155;28;20843;-67
2023/03/03 08:23:11;;;;;;;12.27;4.40;;;;;;;1.03;100.00;101842.19;4995225;28;20436;-66
2023/03/03 08:25:38;;;;;;;13.37;5.40;;;;;;;1.12;100.00;101835.59;4994270;28;21112;-65
2023/03/03 08:28:04;;;;;;;11.43;4.83;;;;;;;1.18;100.00;101840.09;4994660;28;20524;-66
2023/03/03 08:30:31;;;;;;;17.60;5.27;;;;;;;1.22;100.00;101827.16;4994469;28;20457;-65
2023/03/03 08:32:58;;;;;;;14.17;5.50;;;;;;;1.30;100.00;101834.13;4994378;28;20457;-67
2023/03/03 08:35:25;;;;;;;17.40;5.10;;;;;;;1.26;100.00;101831.88;4994105;28;20965;-66
2023/03/03 08:37:54;;;;;;;11.50;4.20;;;;;;;1.41;100.00;101838.81;4994618;28;20449;-66
2023/03/03 08:40:20;;;;;;;12.60;5.20;;;;;;;1.48;100.00;101844.97;4994178;28;21004;-66
2023/03/03 08:42:47;;;;;;;13.83;4.90;;;;;;;1.55;100.00;101843.13;4994164;28;20514;-66
2023/03/03 08:45:14;;;;;;;19.93;5.77;;;;;;;1.48;100.00;101835.09;4993831;28;20548;-65
2023/03/03 08:47:42;;;;;;;16.07;6.50;;;;;;;1.42;100.00;101840.47;4994704;28;20473;-63
2023/03/03 08:50:09;;;;;;;18.07;5.50;;;;;;;1.50;100.00;101843.72;4994005;28;20457;-67
2023/03/03 08:52:36;;;;;;;16.20;5.70;;;;;;;1.56;100.00;101849.28;4994289;28;20451;-68
2023/03/03 08:55:04;;;;;;;14.50;4.47;;;;;;;1.53;100.00;101853.16;4994195;28;20460;-65
2023/03/03 08:57:30;;;;;;;13.67;5.13;;;;;;;1.52;100.00;101841.66;4994090;28;20499;-65
2023/03/03 08:59:57;;;;;;;15.93;5.53;;;;;;;1.54;100.00;101838.78;4993548;28;20998;-66
2023/03/03 09:02:24;;;;;;;12.23;5.00;;;;;;;1.60;100.00;101848.63;4993743;28;20958;-65
2023/03/03 09:04:50;;;;;;;13.80;5.27;;;;;;;1.61;100.00;101836.91;4993995;28;20484;-65
2023/03/03 09:07:17;;;;;;;19.47;6.00;;;;;;;1.62;100.00;101829.72;4993761;28;20524;-65
2023/03/03 09:09:44;;;;;;;13.60;4.93;;;;;;;1.77;100.00;101843.63;4993764;28;20504;-66
2023/03/03 09:12:17;;;;;;;13.53;5.60;;;;;;;1.83;100.00;101837.47;4993145;28;20448;-67
2023/03/03 09:14:44;;;;;;;13.73;5.20;;;;;;;1.86;100.00;101836.19;4993721;28;20445;-66
2023/03/03 09:17:24;;;;;;;17.17;5.73;;;;;;;1.85;100.00;101839.91;4993720;28;20445;-67
2023/03/03 09:19:51;;;;;;;16.63;5.93;;;;;;;1.85;100.00;101839.91;4993688;28;20536;-65
2023/03/03 09:22:22;;;;;;;18.27;6.10;;;;;;;1.86;100.00;101829.03;4993466;28;20445;-65
2023/03/03 09:24:52;;;;;;;12.63;5.20;;;;;;;1.84;100.00;101830.25;4993640;28;20507;-66
2023/03/03 09:27:27;;;;;;;17.00;5.30;;;;;;;1.89;100.00;101830.44;4993851;28;20571;-65
2023/03/03 09:29:54;;;;;;;13.13;5.10;;;;;;;1.90;100.00;101830.22;4993742;28;20488;-67
2023/03/03 09:32:38;;;;;;;17.03;5.77;;;;;;;1.98;100.00;101831.84;4993924;28;20878;-67
2023/03/03 09:35:34;;;;;;;16.53;5.47;;;;;;;2.07;100.00;101833.22;4993399;28;20436;-68
2023/03/03 09:38:02;;;;;;;14.80;5.00;;;;;;;2.19;100.00;101836.06;4993126;28;20921;-65
2023/03/03 09:40:48;;;;;;;14.80;5.27;;;;;;;2.22;98.79;101833.78;4992926;28;20469;-67
2023/03/03 09:43:25;;;;;;;15.70;4.63;;;;;;;2.24;98.97;101837.03;4992992;28;20775;-68
2023/03/03 09:46:04;;;;;;;16.63;5.80;;;;;;;2.26;99.57;101837.66;4993092;28;20560;-67
2023/03/03 09:48:50;;;;;;;19.90;5.93;;;;;;;2.33;98.52;101847.47;4992572;28;20440;-67
2023/03/03 09:51:36;;;;;;;17.33;6.03;;;;;;;2.31;98.10;101838.88;4993125;28;20520;-69
2023/03/03 09:54:18;;;;;;;16.57;5.40;;;;;;;2.32;98.52;101835.97;4993193;28;20806;-67
2023/03/03 09:56:51;;;;;;;16.70;5.27;;;;;;;2.30;97.75;101838.03;4992892;28;20433;-67
2023/03/03 09:59:35;;;;;;;22.33;6.83;;;;;;;2.28;98.20;101840.13;4992650;28;20584;-67
2023/03/03 10:02:24;;;;;;;12.03;5.20;;;;;;;2.28;97.86;101840.94;4992866;28;20453;-67
2023/03/03 10:05:14;;;;;;;13.13;5.17;;;;;;;2.34;98.40;101841.91;4992522;28;20853;-67
2023/03/03 10:07:49;;;;;;;13.80;5.20;;;;;;;2.31;98.64;101837.03;4992628;28;20524;-67
2023/03/03 10:10:33;;;;;;;21.03;6.80;;;;;;;2.35;99.22;101840.09;4992847;28;20472;-67
2023/03/03 10:13:10;;;;;;;22.33;6.50;;;;;;;2.44;99.37;101842.28;4992432;28;20520;-67
2023/03/03 10:15:46;;;;;;;15.77;5.73;;;;;;;2.55;99.10;101837.28;4992492;28;20977;-66
2023/03/03 10:18:28;;;;;;;13.80;5.17;;;;;;;2.54;99.16;101841.81;4992574;28;20432;-67
2023/03/03 10:21:04;;;;;;;18.20;5.97;;;;;;;2.66;98.24;101842.75;4992705;28;20548;-67
2023/03/03 10:23:53;;;;;;;17.60;6.30;;;;;;;2.65;97.88;101835.75;4995334;28;20427;-67
2023/03/03 10:26:29;;;;;;;22.20;6.77;;;;;;;2.68;97.52;101839.84;4996149;28;20484;-67
2023/03/03 10:29:08;;;;;;;18.60;6.67;;;;;;;2.67;97.50;101832.88;4996210;28;20449;-66
2023/03/03 10:31:48;;;;;;;20.03;6.47;;;;;;;2.53;98.20;101827.63;4995895;28;20875;-67
2023/03/03 10:34:31;;;;;;;17.63;6.33;;;;;;;2.54;99.02;101833.78;4996176;28;20425;-66
2023/03/03 10:37:09;;;;;;;17.83;6.57;;;;;;;2.62;99.54;101836.19;4996326;28;20508;-67
2023/03/03 10:39:53;;;;;;;24.10;6.10;;;;;;;2.72;99.07;101835.72;4995880;28;20528;-67
2023/03/03 10:42:42;;;;;;;15.73;6.17;;;;;;;2.77;99.10;101831.34;4996242;28;20543;-67
2023/03/03 10:45:36;;;;;;;19.10;7.13;;;;;;;2.86;98.66;101831.06;4995896;28;20489;-68
2023/03/03 10:48:19;;;;;;;21.17;7.67;;;;;;;2.96;97.79;101834.06;4996026;28;20443;-68
2023/03/03 10:50:54;;;;;;;24.63;6.60;;;;;;;3.08;97.33;101840.34;4995631;28;20896;-68
2023/03/03 10:53:25;;;;;;;18.27;5.50;;;;;;;2.97;97.26;101839.22;4995972;28;20459;-68
2023/03/03 10:56:11;;;;;;;21.77;7.20;;;;;;;2.98;96.92;101840.84;4995749;28;20427;-68
2023/03/03 10:58:49;;;;;;;18.53;7.60;;;;;;;3.06;97.62;101839.75;4996502;28;20456;-68
2023/03/03 11:01:24;;;;;;;21.00;6.53;;;;;;;2.99;96.42;101847.81;4995908;28;20761;-71
2023/03/03 11:04:11;;;;;;;15.60;6.20;;;;;;;3.05;96.19;101843.44;4995888;28;20753;-71
2023/03/03 11:06:45;;;;;;;15.90;6.00;;;;;;;3.03;96.48;101842.84;4995761;28;20560;-69
2023/03/03 11:09:27;;;;;;;20.57;7.20;;;;;;;3.03;96.32;101849.03;4995310;28;20470;-68
2023/03/03 11:12:04;;;;;;;20.00;7.50;;;;;;;3.11;96.08;101847.13;4995244;28;20440;-69
2023/03/03 11:14:37;;;;;;;20.07;6.40;;;;;;;3.12;96.02;101846.88;4995765;28;20523;-67
2023/03/03 11:17:11;;;;;;;25.50;6.70;;;;;;;3.10;96.69;101840.09;4996257;28;20516;-68
2023/03/03 11:19:55;;;;;;;23.60;6.70;;;;;;;3.18;96.25;101832.59;4995137;28;20464;-66
2023/03/03 11:22:40;;;;;;;19.13;7.53;;;;;;;3.16;96.45;101837.38;4995316;28;20545;-66
2023/03/03 11:25:17;;;;;;;20.80;6.77;;;;;;;3.20;96.13;101833.22;4995281;28;20473;-66
2023/03/03 11:28:07;;;;;;;16.50;7.30;;;;;;;3.25;96.04;101830.69;4995197;28;20525;-66
2023/03/03 11:30:49;;;;;;;22.13;7.00;;;;;;;3.27;95.54;101833.16;4995074;28;20471;-66
2023/03/03 11:33:22;;;;;;;18.90;6.90;;;;;;;3.31;95.96;101833.53;4994461;28;20535;-67
2023/03/03 11:36:02;;;;;;;17.77;5.90;;;;;;;3.37;95.74;101824.63;5008581;28;20762;-67